Saint George, UT (84770)

5:28 PM MDT on October 25, 2014 (GMT -0600)
Saint George Municipal | Change Station
CLOSE
Current Station
Airport
Location: St. George,
Elevation: 2940 ft
Nearby Weather Stations

Elev 2940 ft 37.09 °N, 113.59 °W | Updated 13 minutes ago

Clear
Clear
82 °F
Feels Like 82 °F
N
17
Wind Variable Wind from SW

Today
High -- | Low -- °F
--% Chance of Precip.
Yesterday
High -- | Low -- °F
Precip. -- in
7:51 AM 6:44 PM
Waxing Crescent, 5% visible
Pressure 30.00 in
Visibility 10.0 miles
Clouds Clear
Dew Point 43 °F
Humidity 25%
Rainfall 0.00 in
Snow Depth Not available.
UV 1 out of 12
Pollen 4.40 out of 12
Air Quality Not available.
Flu Activity Sporadic
METAR KSGU 252315Z AUTO 22015KT 10SM CLR 28/06 A3000 RMK AO1

More Conditions Fewer Conditions

Pressure 30.00 in
Visibility 10.0 miles
Clouds Clear
Dew Point 43 °F
Humidity 25%
Rainfall 0.00 in
Snow Depth Not available.
UV 1 out of 12
Pollen 4.40 out of 12
Air Quality Not available.
Flu Activity Sporadic
METAR KSGU 252315Z AUTO 22015KT 10SM CLR 28/06 A3000 RMK AO1

More Conditions Fewer Conditions

10-Day Weather Forecast

Almanac

Astronomy

Oct. 25, 2014 Rise Set
Actual Time 7:51 AM MDT 6:44 PM MDT
Civil Twilight 7:25 AM MDT 7:11 PM MDT
Nautical Twilight 6:54 AM MDT 7:41 PM MDT
Astronomical Twilight 6:24 AM MDT 8:11 PM MDT
Moon 9:32 AM MDT 8:12 PM MDT
Length of Visible Light 11h 46m
Length of Day
10h 52m
Tomorrow will be 2m 10s shorter.
Waxing Crescent, 5% of the Moon is Illuminated
Today
Waxing Crescent
Oct 30
First Quarter
Nov 6
Full
Nov 14
Last Quarter
Nov 22
New

Today's Extremes

State Highs State Lows

Community

WunderPhotos

Upload Photos

1,765,027 photos uploaded!

Nearby

Snow Depth

Station Depth Elevation
Long Valley Jct 1 in 7360 ft
Merchant Valley 0 in 8750 ft
Big Flat 0 in 10290 ft
Box Creek 0 in 9800 ft
Clear Creek #2 0 in 8300 ft

Earthquake Activity

City Distance Mag. Time & Date
No recent earthquake activity has been reported nearby.
Minimum magnitude displayed is 2.5.

Coastal Water Temperatures

Place Temperature
No Stations Reporting

Nearby Weather Stations